Time,TemperatureF,DewpointF,PressureIn,WindDirection,WindDirectionDegrees,WindSpeedMPH,WindSpeedGustMPH,Humidity,HourlyPrecipIn,Conditions,Clouds,dailyrainin,SolarRadiationWatts/m^2,SoftwareType,DateUTC
2013-04-26 00:01:00,46.0,26.9,30.00,SE,130,7.0,10.0,47,0.00,,---,0.00,0.00,VWS V14.00,2013-04-26 05:01:00,
2013-04-26 00:06:00,45.8,26.7,30.00,ESE,102,5.0,6.0,47,0.00,,---,0.00,0.00,VWS V14.00,2013-04-26 05:06:00,
2013-04-26 00:11:00,45.8,26.7,30.00,SE,134,3.0,8.0,47,0.00,,---,0.00,0.00,VWS V14.00,2013-04-26 05:11:00,
2013-04-26 00:16:00,45.7,26.6,30.00,ESE,120,6.0,6.0,47,0.00,,---,0.00,0.00,VWS V14.00,2013-04-26 05:16:00,
2013-04-26 00:21:00,45.8,26.7,29.99,SE,138,7.0,7.0,47,0.00,,---,0.00,0.00,VWS V14.00,2013-04-26 05:21:00,
2013-04-26 00:26:00,45.7,26.6,29.99,SE,133,1.0,1.0,47,0.00,,---,0.00,0.00,VWS V14.00,2013-04-26 05:26:00,
2013-04-26 00:31:00,45.7,26.6,29.99,ESE,110,3.0,3.0,47,0.00,,---,0.00,0.00,VWS V14.00,2013-04-26 05:31:00,
2013-04-26 00:36:00,45.8,26.7,29.99,East,97,6.0,6.0,47,0.00,,---,0.00,0.00,VWS V14.00,2013-04-26 05:36:00,
2013-04-26 00:41:00,46.0,26.9,29.99,SE,137,3.0,3.0,47,0.00,,---,0.00,0.00,VWS V14.00,2013-04-26 05:41:00,
2013-04-26 00:46:00,46.0,26.9,29.99,ESE,117,3.0,3.0,47,0.00,,---,0.00,0.00,VWS V14.00,2013-04-26 05:46:00,
2013-04-26 00:51:00,46.0,26.9,29.99,SE,131,6.0,6.0,47,0.00,,---,0.00,0.00,VWS V14.00,2013-04-26 05:51:00,
2013-04-26 00:56:00,46.5,27.4,29.99,ESE,114,6.0,8.0,47,0.00,,---,0.00,0.00,VWS V14.00,2013-04-26 05:56:00,
2013-04-26 01:01:00,46.5,26.9,29.99,SSE,155,8.0,14.0,46,0.00,,---,0.00,0.00,VWS V14.00,2013-04-26 06:01:00,
2013-04-26 01:06:00,46.5,26.9,29.96,SSE,154,5.0,5.0,46,0.00,,---,0.00,0.00,VWS V14.00,2013-04-26 06:06:00,
2013-04-26 01:11:00,46.7,27.0,29.96,SSE,158,6.0,10.0,46,0.00,,---,0.00,0.00,VWS V14.00,2013-04-26 06:11:00,
2013-04-26 01:16:00,46.8,27.1,29.96,SSE,168,6.0,6.0,46,0.00,,---,0.00,0.00,VWS V14.00,2013-04-26 06:16:00,
2013-04-26 01:21:00,47.0,27.3,29.96,ESE,116,11.0,11.0,46,0.00,,---,0.00,0.00,VWS V14.00,2013-04-26 06:21:00,
2013-04-26 01:26:00,47.0,27.3,29.96,SE,140,3.0,3.0,46,0.00,,---,0.00,0.00,VWS V14.00,2013-04-26 06:26:00,
2013-04-26 01:31:00,47.0,27.3,29.96,SSE,161,7.0,7.0,46,0.00,,---,0.00,0.00,VWS V14.00,2013-04-26 06:31:00,
2013-04-26 01:36:00,46.8,27.1,29.95,ESE,121,10.0,10.0,46,0.00,,---,0.00,0.00,VWS V14.00,2013-04-26 06:36:00,
2013-04-26 01:41:00,46.8,27.1,29.95,SSE,151,7.0,7.0,46,0.00,,---,0.00,0.00,VWS V14.00,2013-04-26 06:41:00,
2013-04-26 01:46:00,46.2,26.6,29.95,SE,137,5.0,6.0,46,0.00,,---,0.00,0.00,VWS V14.00,2013-04-26 06:46:00,
2013-04-26 01:51:00,46.2,26.6,29.95,ESE,106,7.0,7.0,46,0.00,,---,0.00,0.00,VWS V14.00,2013-04-26 06:51:00,
2013-04-26 01:56:00,45.8,26.2,29.95,SE,131,12.0,12.0,46,0.00,,---,0.00,0.00,VWS V14.00,2013-04-26 06:56:00,
2013-04-26 02:01:00,45.8,27.7,29.95,ESE,121,7.0,7.0,49,0.00,,---,0.00,0.00,VWS V14.00,2013-04-26 07:01:00,
2013-04-26 02:06:00,45.7,28.6,29.93,ESE,114,6.0,6.0,51,0.00,,---,0.00,0.00,VWS V14.00,2013-04-26 07:06:00,
2013-04-26 02:11:00,45.5,28.4,29.93,SE,140,6.0,6.0,51,0.00,,---,0.00,0.00,VWS V14.00,2013-04-26 07:11:00,
2013-04-26 02:16:00,45.5,28.4,29.93,SSE,147,5.0,5.0,51,0.00,,---,0.00,0.00,VWS V14.00,2013-04-26 07:16:00,
2013-04-26 02:21:00,45.7,30.5,29.92,SE,128,4.0,4.0,55,0.00,,---,0.00,0.00,VWS V14.00,2013-04-26 07:21:00,
2013-04-26 02:26:00,45.5,30.7,29.92,SE,140,5.0,6.0,56,0.00,,---,0.00,0.00,VWS V14.00,2013-04-26 07:26:00,
2013-04-26 02:31:00,45.7,31.4,29.92,SE,126,7.0,7.0,57,0.00,,---,0.00,0.00,VWS V14.00,2013-04-26 07:31:00,
2013-04-26 02:36:00,45.7,31.4,29.91,SSE,154,3.0,3.0,57,0.00,,---,0.00,0.00,VWS V14.00,2013-04-26 07:36:00,
2013-04-26 02:41:00,46.0,31.6,29.91,South,185,2.0,6.0,57,0.00,,---,0.00,0.00,VWS V14.00,2013-04-26 07:41:00,
2013-04-26 02:45:00,46.0,31.6,29.91,SSE,147,8.0,8.0,57,0.00,,---,0.00,0.00,VWS V14.00,2013-04-26 07:45:00,
2013-04-26 02:50:00,46.0,31.6,29.91,ESE,103,7.0,7.0,57,0.00,,---,0.00,0.00,VWS V14.00,2013-04-26 07:50:00,
2013-04-26 02:55:00,47.4,33.0,29.91,SE,144,6.0,6.0,57,0.00,,---,0.00,0.00,VWS V14.00,2013-04-26 07:55:00,
2013-04-26 03:00:00,47.4,32.5,29.91,South,186,10.0,10.0,56,0.00,,---,0.00,0.00,VWS V14.00,2013-04-26 08:00:00,
2013-04-26 03:05:00,47.4,32.5,29.92,SE,137,5.0,5.0,56,0.00,,---,0.00,0.00,VWS V14.00,2013-04-26 08:05:00,
2013-04-26 03:10:00,47.4,32.5,29.92,SSW,206,13.0,13.0,56,0.00,,---,0.00,0.00,VWS V14.00,2013-04-26 08:10:00,
2013-04-26 03:15:00,47.4,32.5,29.92,South,178,19.0,19.0,56,0.00,,---,0.00,0.00,VWS V14.00,2013-04-26 08:15:00,
2013-04-26 03:20:00,47.0,32.1,29.90,SE,133,6.0,6.0,56,0.00,,---,0.01,0.00,VWS V14.00,2013-04-26 08:20:00,
2013-04-26 03:25:00,47.0,32.1,29.90,SSW,203,3.0,3.0,56,0.00,,---,0.01,0.00,VWS V14.00,2013-04-26 08:25:00,
2013-04-26 03:30:00,47.0,32.1,29.90,SSE,150,3.0,3.0,56,0.00,,---,0.01,0.00,VWS V14.00,2013-04-26 08:30:00,
2013-04-26 03:35:00,46.2,34.3,29.90,SSW,203,3.0,3.0,63,0.00,,---,0.01,0.00,VWS V14.00,2013-04-26 08:35:00,
2013-04-26 03:40:00,46.4,34.5,29.90,South,188,7.0,7.0,63,0.00,,---,0.01,0.00,VWS V14.00,2013-04-26 08:40:00,
2013-04-26 03:45:00,46.5,34.6,29.90,SSE,155,7.0,7.0,63,0.00,,---,0.01,0.00,VWS V14.00,2013-04-26 08:45:00,
2013-04-26 03:50:00,46.5,34.6,29.90,ESE,114,2.0,7.0,63,0.00,,---,0.01,0.00,VWS V14.00,2013-04-26 08:50:00,
2013-04-26 03:55:00,46.5,34.6,29.90,SE,143,4.0,4.0,63,0.00,,---,0.01,0.00,VWS V14.00,2013-04-26 08:55:00,
2013-04-26 04:00:00,46.5,34.6,29.90,SE,143,7.0,7.0,63,0.00,,---,0.01,0.00,VWS V14.00,2013-04-26 09:00:00,
2013-04-26 04:05:00,46.5,34.2,29.89,SSE,161,6.0,6.0,62,0.00,,---,0.01,0.00,VWS V14.00,2013-04-26 09:05:00,
2013-04-26 04:10:00,46.5,34.2,29.89,SSE,147,6.0,6.0,62,0.00,,---,0.01,0.00,VWS V14.00,2013-04-26 09:10:00,
2013-04-26 04:15:00,46.5,34.2,29.89,SE,140,7.0,7.0,62,0.00,,---,0.01,0.00,VWS V14.00,2013-04-26 09:15:00,
2013-04-26 04:20:00,46.7,34.4,29.90,SSW,200,10.0,10.0,62,0.00,,---,0.01,0.00,VWS V14.00,2013-04-26 09:20:00,
2013-04-26 04:25:00,46.7,34.4,29.90,ESE,106,2.0,2.0,62,0.00,,---,0.01,0.00,VWS V14.00,2013-04-26 09:25:00,
2013-04-26 04:30:00,46.7,34.4,29.90,ESE,117,3.0,3.0,62,0.00,,---,0.01,0.00,VWS V14.00,2013-04-26 09:30:00,
2013-04-26 04:35:00,46.7,34.4,29.89,SSE,157,2.0,2.0,62,0.00,,---,0.01,0.00,VWS V14.00,2013-04-26 09:35:00,
2013-04-26 04:40:00,46.7,34.4,29.89,SE,138,0.0,0.0,62,0.00,,---,0.01,0.00,VWS V14.00,2013-04-26 09:40:00,
2013-04-26 04:45:00,46.7,34.4,29.89,SE,136,6.0,6.0,62,0.00,,---,0.01,0.00,VWS V14.00,2013-04-26 09:45:00,
2013-04-26 04:50:00,46.7,34.4,29.89,SSE,147,2.0,2.0,62,0.00,,---,0.01,0.00,VWS V14.00,2013-04-26 09:50:00,
2013-04-26 04:55:00,46.7,34.4,29.89,SSW,195,5.0,5.0,62,0.00,,---,0.01,0.00,VWS V14.00,2013-04-26 09:55:00,
2013-04-26 05:00:00,46.7,34.4,29.89,SSE,154,4.0,4.0,62,0.00,,---,0.01,0.00,VWS V14.00,2013-04-26 10:00:00,
2013-04-26 05:05:00,46.7,34.4,29.89,South,191,6.0,6.0,62,0.00,,---,0.01,0.00,VWS V14.00,2013-04-26 10:05:00,
2013-04-26 05:10:00,46.7,35.2,29.89,SSE,165,6.0,6.0,64,0.00,,---,0.01,0.00,VWS V14.00,2013-04-26 10:10:00,
2013-04-26 05:15:00,46.7,35.2,29.89,SSE,165,4.0,4.0,64,0.00,,---,0.01,0.00,VWS V14.00,2013-04-26 10:15:00,
2013-04-26 05:20:00,46.8,35.3,29.89,SSE,151,1.0,1.0,64,0.00,,---,0.01,0.00,VWS V14.00,2013-04-26 10:20:00,
2013-04-26 05:25:00,47.0,35.5,29.89,SE,140,2.0,2.0,64,0.00,,---,0.01,0.00,VWS V14.00,2013-04-26 10:25:00,
2013-04-26 05:30:00,47.0,35.5,29.89,ESE,121,3.0,3.0,64,0.00,,---,0.01,0.00,VWS V14.00,2013-04-26 10:30:00,
2013-04-26 05:35:00,47.0,35.5,29.88,SSE,165,7.0,7.0,64,0.00,,---,0.01,0.00,VWS V14.00,2013-04-26 10:35:00,
2013-04-26 05:40:00,47.6,36.0,29.88,SSE,155,5.0,5.0,64,0.00,,---,0.01,0.00,VWS V14.00,2013-04-26 10:40:00,
2013-04-26 05:45:00,47.6,36.0,29.88,SSW,199,3.0,3.0,64,0.00,,---,0.01,0.00,VWS V14.00,2013-04-26 10:45:00,
2013-04-26 05:50:00,47.6,35.6,29.88,SE,131,6.0,6.0,63,0.00,,---,0.01,0.00,VWS V14.00,2013-04-26 10:50:00,
2013-04-26 05:55:00,47.4,35.5,29.88,South,172,7.0,7.0,63,0.00,,---,0.01,0.00,VWS V14.00,2013-04-26 10:55:00,
2013-04-26 06:00:00,47.3,35.4,29.88,ESE,116,6.0,6.0,63,0.00,,---,0.01,0.00,VWS V14.00,2013-04-26 11:00:00,
2013-04-26 06:05:00,47.3,35.4,29.88,SSW,192,6.0,6.0,63,0.00,,---,0.01,0.00,VWS V14.00,2013-04-26 11:05:00,
2013-04-26 06:10:00,47.3,35.4,29.88,South,169,2.0,2.0,63,0.00,,---,0.01,0.00,VWS V14.00,2013-04-26 11:10:00,
2013-04-26 06:15:00,47.3,35.4,29.88,SSE,168,2.0,2.0,63,0.00,,---,0.01,0.00,VWS V14.00,2013-04-26 11:15:00,
2013-04-26 06:20:00,47.0,35.5,29.88,SSE,161,4.0,6.0,64,0.00,,---,0.01,0.00,VWS V14.00,2013-04-26 11:20:00,
2013-04-26 06:25:00,47.0,35.5,29.88,SSE,168,4.0,4.0,64,0.00,,---,0.01,0.00,VWS V14.00,2013-04-26 11:25:00,
2013-04-26 06:30:00,47.0,35.5,29.88,SE,127,4.0,5.0,64,0.00,,---,0.01,0.00,VWS V14.00,2013-04-26 11:30:00,
2013-04-26 06:35:00,47.0,35.5,29.88,SE,136,2.0,2.0,64,0.00,,---,0.01,0.00,VWS V14.00,2013-04-26 11:35:00,
2013-04-26 06:40:00,46.8,35.3,29.88,SSE,162,5.0,5.0,64,0.00,,---,0.01,23.00,VWS V14.00,2013-04-26 11:40:00,
2013-04-26 06:45:00,46.8,35.3,29.88,ESE,119,3.0,3.0,64,0.00,,---,0.01,23.00,VWS V14.00,2013-04-26 11:45:00,
2013-04-26 06:50:00,46.8,35.3,29.88,SE,127,2.0,2.0,64,0.00,,---,0.01,23.00,VWS V14.00,2013-04-26 11:50:00,
2013-04-26 06:55:00,47.0,35.5,29.88,SSW,203,7.0,7.0,64,0.00,,---,0.01,37.00,VWS V14.00,2013-04-26 11:55:00,
2013-04-26 07:00:00,47.0,36.2,29.88,SSE,150,1.0,4.0,66,0.00,,---,0.01,51.00,VWS V14.00,2013-04-26 12:00:00,
2013-04-26 07:05:00,47.0,36.2,29.89,SE,127,5.0,6.0,66,0.00,,---,0.01,51.00,VWS V14.00,2013-04-26 12:05:00,
2013-04-26 07:10:00,47.0,35.9,29.89,South,181,3.0,4.0,65,0.00,,---,0.01,51.00,VWS V14.00,2013-04-26 12:10:00,
2013-04-26 07:15:00,47.0,35.9,29.89,SSE,161,3.0,3.0,65,0.00,,---,0.01,51.00,VWS V14.00,2013-04-26 12:15:00,
2013-04-26 07:20:00,47.7,36.5,29.89,SSE,155,3.0,3.0,65,0.00,,---,0.01,51.00,VWS V14.00,2013-04-26 12:20:00,
2013-04-26 07:25:00,48.0,36.8,29.89,SSE,158,2.0,2.0,65,0.00,,---,0.01,51.00,VWS V14.00,2013-04-26 12:25:00,
2013-04-26 07:30:00,48.3,37.1,29.89,SSE,168,6.0,6.0,65,0.00,,---,0.01,51.00,VWS V14.00,2013-04-26 12:30:00,
2013-04-26 07:35:00,48.5,37.3,29.89,SSE,158,2.0,5.0,65,0.00,,---,0.01,51.00,VWS V14.00,2013-04-26 12:35:00,
2013-04-26 07:40:00,48.8,37.2,29.89,SW,230,6.0,6.0,64,0.00,,---,0.01,51.00,VWS V14.00,2013-04-26 12:40:00,
2013-04-26 07:45:00,49.2,37.6,29.89,SSE,162,2.0,2.0,64,0.00,,---,0.01,51.00,VWS V14.00,2013-04-26 12:45:00,
2013-04-26 07:50:00,49.2,37.6,29.89,SE,128,7.0,7.0,64,0.00,,---,0.01,51.00,VWS V14.00,2013-04-26 12:50:00,
2013-04-26 07:55:00,49.2,37.2,29.89,SW,215,5.0,5.0,63,0.00,,---,0.01,51.00,VWS V14.00,2013-04-26 12:55:00,
2013-04-26 08:00:00,49.2,37.2,29.89,SSW,205,6.0,6.0,63,0.00,,---,0.01,51.00,VWS V14.00,2013-04-26 13:00:00,
2013-04-26 08:05:00,49.2,36.8,29.89,SSE,147,8.0,8.0,62,0.00,,---,0.01,51.00,VWS V14.00,2013-04-26 13:05:00,
2013-04-26 08:10:00,50.5,38.0,29.89,SSE,155,3.0,3.0,62,0.00,,---,0.01,51.00,VWS V14.00,2013-04-26 13:10:00,
2013-04-26 08:15:00,50.8,37.4,29.89,ENE,76,5.0,9.0,60,0.00,,---,0.01,51.00,VWS V14.00,2013-04-26 13:15:00,
2013-04-26 08:20:00,51.1,37.7,29.89,SSE,161,3.0,3.0,60,0.00,,---,0.01,51.00,VWS V14.00,2013-04-26 13:20:00,
2013-04-26 08:25:00,51.7,38.3,29.89,SSW,200,6.0,6.0,60,0.00,,---,0.01,51.00,VWS V14.00,2013-04-26 13:25:00,
2013-04-26 08:30:00,52.2,38.8,29.89,South,178,3.0,7.0,60,0.00,,---,0.01,51.00,VWS V14.00,2013-04-26 13:30:00,
2013-04-26 08:35:00,52.5,39.0,29.89,SW,216,9.0,10.0,60,0.00,,---,0.01,51.00,VWS V14.00,2013-04-26 13:35:00,
2013-04-26 08:40:00,52.6,38.7,29.89,ESE,116,3.0,3.0,59,0.00,,---,0.01,51.00,VWS V14.00,2013-04-26 13:40:00,
2013-04-26 08:45:00,53.2,38.4,29.89,SSW,206,5.0,11.0,57,0.00,,---,0.01,51.00,VWS V14.00,2013-04-26 13:45:00,
2013-04-26 08:50:00,53.2,38.4,29.89,South,189,6.0,6.0,57,0.00,,---,0.01,51.00,VWS V14.00,2013-04-26 13:50:00,
2013-04-26 08:55:00,53.6,38.8,29.89,SSW,196,6.0,6.0,57,0.00,,---,0.01,51.00,VWS V14.00,2013-04-26 13:55:00,
2013-04-26 09:00:00,53.6,38.8,29.89,SSW,193,7.0,7.0,57,0.00,,---,0.01,457.00,VWS V14.00,2013-04-26 14:00:00,
2013-04-26 09:05:00,54.7,39.8,29.89,SSW,208,6.0,6.0,57,0.00,,---,0.01,457.00,VWS V14.00,2013-04-26 14:05:00,
2013-04-26 09:10:00,55.3,40.3,29.89,WSW,241,1.0,1.0,57,0.00,,---,0.01,457.00,VWS V14.00,2013-04-26 14:10:00,
2013-04-26 09:15:00,55.4,40.4,29.89,SW,234,8.0,8.0,57,0.00,,---,0.01,457.00,VWS V14.00,2013-04-26 14:15:00,
2013-04-26 09:20:00,55.4,40.4,29.89,WSW,253,2.0,2.0,57,0.00,,---,0.01,457.00,VWS V14.00,2013-04-26 14:20:00,
2013-04-26 09:25:00,55.4,40.4,29.89,SSW,202,3.0,3.0,57,0.00,,---,0.01,457.00,VWS V14.00,2013-04-26 14:25:00,
2013-04-26 09:30:00,55.4,40.4,29.89,SW,223,7.0,7.0,57,0.00,,---,0.01,457.00,VWS V14.00,2013-04-26 14:30:00,
2013-04-26 09:35:00,57.5,42.4,29.89,SW,217,2.0,2.0,57,0.00,,---,0.01,457.00,VWS V14.00,2013-04-26 14:35:00,
2013-04-26 09:40:00,57.6,42.5,29.89,SSE,168,5.0,5.0,57,0.00,,---,0.01,457.00,VWS V14.00,2013-04-26 14:40:00,
2013-04-26 09:45:00,58.0,42.9,29.89,SSW,199,7.0,7.0,57,0.00,,---,0.01,457.00,VWS V14.00,2013-04-26 14:45:00,
2013-04-26 09:50:00,58.0,42.9,29.89,SW,229,2.0,2.0,57,0.00,,---,0.01,457.00,VWS V14.00,2013-04-26 14:50:00,
2013-04-26 09:55:00,58.0,38.4,29.89,SSW,198,12.0,12.0,48,0.00,,---,0.01,607.00,VWS V14.00,2013-04-26 14:55:00,
2013-04-26 10:00:00,58.0,38.4,29.89,SW,233,7.0,7.0,48,0.00,,---,0.01,607.00,VWS V14.00,2013-04-26 15:00:00,
2013-04-26 10:05:00,59.3,39.6,29.89,SW,215,2.0,2.0,48,0.00,,---,0.01,607.00,VWS V14.00,2013-04-26 15:05:00,
2013-04-26 10:10:00,59.3,39.6,29.89,NW,309,3.0,3.0,48,0.00,,---,0.01,607.00,VWS V14.00,2013-04-26 15:10:00,
2013-04-26 10:15:00,59.9,40.2,29.89,WSW,253,6.0,6.0,48,0.00,,---,0.01,607.00,VWS V14.00,2013-04-26 15:15:00,
2013-04-26 10:20:00,59.9,40.2,29.90,WSW,244,6.0,6.0,48,0.00,,---,0.01,607.00,VWS V14.00,2013-04-26 15:20:00,
2013-04-26 10:25:00,59.9,40.2,29.90,West,272,8.0,8.0,48,0.00,,---,0.01,607.00,VWS V14.00,2013-04-26 15:25:00,
2013-04-26 10:30:00,60.1,40.4,29.90,WSW,251,5.0,5.0,48,0.00,,---,0.01,607.00,VWS V14.00,2013-04-26 15:30:00,
2013-04-26 10:35:00,60.1,40.4,29.90,WNW,292,6.0,6.0,48,0.00,,---,0.01,607.00,VWS V14.00,2013-04-26 15:35:00,
2013-04-26 10:40:00,60.1,40.4,29.90,WSW,258,3.0,3.0,48,0.00,,---,0.01,607.00,VWS V14.00,2013-04-26 15:40:00,
2013-04-26 10:45:00,60.1,40.4,29.90,SW,236,7.0,7.0,48,0.00,,---,0.01,607.00,VWS V14.00,2013-04-26 15:45:00,
2013-04-26 10:50:00,60.1,40.4,29.91,WSW,253,8.0,8.0,48,0.00,,---,0.01,607.00,VWS V14.00,2013-04-26 15:50:00,
2013-04-26 10:55:00,60.5,40.7,29.91,SW,223,3.0,3.0,48,0.00,,---,0.01,607.00,VWS V14.00,2013-04-26 15:55:00,
2013-04-26 11:00:00,60.9,41.1,29.91,West,268,3.0,4.0,48,0.00,,---,0.01,607.00,VWS V14.00,2013-04-26 16:00:00,
2013-04-26 11:05:00,60.7,40.9,29.91,NW,305,8.0,11.0,48,0.00,,---,0.01,607.00,VWS V14.00,2013-04-26 16:05:00,
2013-04-26 11:10:00,60.9,41.1,29.91,SW,223,4.0,4.0,48,0.00,,---,0.01,607.00,VWS V14.00,2013-04-26 16:10:00,
2013-04-26 11:15:00,60.9,38.9,29.91,West,275,2.0,3.0,44,0.00,,---,0.01,607.00,VWS V14.00,2013-04-26 16:15:00,
2013-04-26 11:20:00,61.3,39.2,29.92,WNW,302,6.0,7.0,44,0.00,,---,0.01,797.00,VWS V14.00,2013-04-26 16:20:00,
2013-04-26 11:25:00,61.3,39.2,29.92,West,264,2.0,2.0,44,0.00,,---,0.01,797.00,VWS V14.00,2013-04-26 16:25:00,
2013-04-26 11:30:00,61.3,39.2,29.92,West,275,5.0,5.0,44,0.00,,---,0.01,797.00,VWS V14.00,2013-04-26 16:30:00,
2013-04-26 11:35:00,61.6,39.5,29.92,WSW,253,4.0,4.0,44,0.00,,---,0.01,797.00,VWS V14.00,2013-04-26 16:35:00,
2013-04-26 11:40:00,61.6,39.5,29.92,WSW,258,5.0,5.0,44,0.00,,---,0.01,827.00,VWS V14.00,2013-04-26 16:40:00,
2013-04-26 11:45:00,61.8,39.7,29.92,West,280,3.0,3.0,44,0.00,,---,0.01,827.00,VWS V14.00,2013-04-26 16:45:00,
2013-04-26 11:50:00,61.8,39.7,29.93,WNW,299,6.0,6.0,44,0.00,,---,0.01,827.00,VWS V14.00,2013-04-26 16:50:00,
2013-04-26 11:55:00,61.3,39.2,29.93,West,271,2.0,2.0,44,0.00,,---,0.01,827.00,VWS V14.00,2013-04-26 16:55:00,
2013-04-26 12:00:00,61.3,39.2,29.93,SSW,198,0.0,0.0,44,0.00,,---,0.01,827.00,VWS V14.00,2013-04-26 17:00:00,
2013-04-26 12:05:00,61.3,39.2,29.93,WSW,246,3.0,9.0,44,0.00,,---,0.01,827.00,VWS V14.00,2013-04-26 17:05:00,
2013-04-26 12:10:00,62.6,40.4,29.93,West,267,2.0,2.0,44,0.00,,---,0.01,827.00,VWS V14.00,2013-04-26 17:10:00,
2013-04-26 12:15:00,63.2,41.0,29.93,WSW,251,2.0,2.0,44,0.00,,---,0.01,827.00,VWS V14.00,2013-04-26 17:15:00,
2013-04-26 12:20:00,63.2,41.0,29.93,ENE,64,2.0,2.0,44,0.00,,---,0.01,827.00,VWS V14.00,2013-04-26 17:20:00,
2013-04-26 12:25:00,63.2,39.1,29.93,SSW,209,6.0,6.0,41,0.00,,---,0.01,827.00,VWS V14.00,2013-04-26 17:25:00,
2013-04-26 12:30:00,64.8,40.6,29.93,South,191,3.0,3.0,41,0.00,,---,0.01,827.00,VWS V14.00,2013-04-26 17:30:00,
2013-04-26 12:35:00,64.5,40.3,29.93,SE,128,0.0,0.0,41,0.00,,---,0.01,827.00,VWS V14.00,2013-04-26 17:35:00,
2013-04-26 12:40:00,65.5,41.2,29.93,SW,223,3.0,4.0,41,0.00,,---,0.01,827.00,VWS V14.00,2013-04-26 17:40:00,
2013-04-26 12:45:00,65.6,41.3,29.93,NW,318,2.0,2.0,41,0.00,,---,0.01,827.00,VWS V14.00,2013-04-26 17:45:00,
2013-04-26 12:50:00,66.0,41.7,29.92,WSW,239,2.0,2.0,41,0.00,,---,0.01,827.00,VWS V14.00,2013-04-26 17:50:00,
2013-04-26 12:55:00,66.0,41.7,29.92,SW,217,5.0,5.0,41,0.00,,---,0.01,827.00,VWS V14.00,2013-04-26 17:55:00,
2013-04-26 13:00:00,66.4,42.0,29.92,SW,220,6.0,6.0,41,0.00,,---,0.01,827.00,VWS V14.00,2013-04-26 18:00:00,
2013-04-26 13:05:00,66.4,42.0,29.92,SE,130,0.0,0.0,41,0.00,,---,0.01,827.00,VWS V14.00,2013-04-26 18:05:00,
2013-04-26 13:10:00,66.4,42.0,29.92,East,83,2.0,2.0,41,0.00,,---,0.01,883.00,VWS V14.00,2013-04-26 18:10:00,
2013-04-26 13:15:00,66.4,42.0,29.92,South,184,2.0,2.0,41,0.00,,---,0.01,883.00,VWS V14.00,2013-04-26 18:15:00,
2013-04-26 13:20:00,66.8,42.4,29.92,SSW,199,6.0,6.0,41,0.00,,---,0.01,883.00,VWS V14.00,2013-04-26 18:20:00,
2013-04-26 13:25:00,66.8,42.4,29.92,WSW,240,2.0,2.0,41,0.00,,---,0.01,883.00,VWS V14.00,2013-04-26 18:25:00,
2013-04-26 13:30:00,66.8,42.4,29.92,SSW,209,5.0,5.0,41,0.00,,---,0.01,883.00,VWS V14.00,2013-04-26 18:30:00,
2013-04-26 13:35:00,66.9,42.5,29.92,SSW,206,7.0,7.0,41,0.00,,---,0.01,883.00,VWS V14.00,2013-04-26 18:35:00,
2013-04-26 13:40:00,66.9,42.5,29.92,SSW,212,6.0,6.0,41,0.00,,---,0.01,883.00,VWS V14.00,2013-04-26 18:40:00,
2013-04-26 13:45:00,67.3,40.8,29.92,SW,215,5.0,7.0,38,0.00,,---,0.01,871.00,VWS V14.00,2013-04-26 18:45:00,
2013-04-26 13:50:00,67.1,40.7,29.92,SSW,208,4.0,4.0,38,0.00,,---,0.01,866.00,VWS V14.00,2013-04-26 18:50:00,
2013-04-26 13:55:00,67.1,40.7,29.92,South,176,3.0,3.0,38,0.00,,---,0.01,866.00,VWS V14.00,2013-04-26 18:55:00,
2013-04-26 14:00:00,66.9,40.5,29.92,WSW,243,7.0,7.0,38,0.00,,---,0.01,866.00,VWS V14.00,2013-04-26 19:00:00,
2013-04-26 14:05:00,67.1,40.7,29.92,SW,233,2.0,2.0,38,0.00,,---,0.01,866.00,VWS V14.00,2013-04-26 19:05:00,
2013-04-26 14:10:00,67.8,41.3,29.92,SSW,192,1.0,1.0,38,0.00,,---,0.01,866.00,VWS V14.00,2013-04-26 19:10:00,
2013-04-26 14:15:00,67.8,39.9,29.92,SW,227,2.0,7.0,36,0.00,,---,0.01,866.00,VWS V14.00,2013-04-26 19:15:00,
2013-04-26 14:20:00,67.8,39.9,29.92,West,267,2.0,2.0,36,0.00,,---,0.01,866.00,VWS V14.00,2013-04-26 19:20:00,
2013-04-26 14:25:00,67.8,39.9,29.92,WNW,285,6.0,6.0,36,0.00,,---,0.01,866.00,VWS V14.00,2013-04-26 19:25:00,
2013-04-26 14:30:00,66.8,39.0,29.92,West,265,1.0,1.0,36,0.00,,---,0.01,866.00,VWS V14.00,2013-04-26 19:30:00,
2013-04-26 14:35:00,67.3,40.2,29.93,West,263,5.0,6.0,37,0.00,,---,0.01,866.00,VWS V14.00,2013-04-26 19:35:00,
2013-04-26 14:40:00,67.3,40.2,29.93,SW,219,4.0,4.0,37,0.00,,---,0.01,866.00,VWS V14.00,2013-04-26 19:40:00,
2013-04-26 14:45:00,67.8,40.6,29.93,WNW,285,2.0,2.0,37,0.00,,---,0.01,866.00,VWS V14.00,2013-04-26 19:45:00,
2013-04-26 14:50:00,67.9,40.7,29.93,NW,315,2.0,2.0,37,0.00,,---,0.01,866.00,VWS V14.00,2013-04-26 19:50:00,
2013-04-26 14:55:00,67.9,40.7,29.93,South,178,5.0,5.0,37,0.00,,---,0.01,866.00,VWS V14.00,2013-04-26 19:55:00,
2013-04-26 15:00:00,68.3,40.3,29.93,South,178,3.0,8.0,36,0.00,,---,0.01,866.00,VWS V14.00,2013-04-26 20:00:00,
2013-04-26 15:05:00,68.8,40.8,29.93,SSW,200,9.0,9.0,36,0.00,,---,0.01,866.00,VWS V14.00,2013-04-26 20:05:00,
2013-04-26 15:10:00,69.1,41.0,29.93,SE,133,1.0,1.0,36,0.00,,---,0.01,866.00,VWS V14.00,2013-04-26 20:10:00,
2013-04-26 15:15:00,69.1,41.0,29.93,SW,226,2.0,2.0,36,0.00,,---,0.01,866.00,VWS V14.00,2013-04-26 20:15:00,
2013-04-26 15:20:00,69.9,41.8,29.93,West,261,2.0,2.0,36,0.00,,---,0.01,866.00,VWS V14.00,2013-04-26 20:20:00,
2013-04-26 15:25:00,69.9,41.8,29.93,SW,234,2.0,2.0,36,0.00,,---,0.01,866.00,VWS V14.00,2013-04-26 20:25:00,
2013-04-26 15:30:00,69.9,41.8,29.93,West,281,1.0,1.0,36,0.00,,---,0.01,866.00,VWS V14.00,2013-04-26 20:30:00,
2013-04-26 15:35:00,69.9,39.5,29.93,South,191,1.0,3.0,33,0.00,,---,0.01,866.00,VWS V14.00,2013-04-26 20:35:00,
2013-04-26 15:40:00,70.6,40.9,29.93,West,277,6.0,6.0,34,0.00,,---,0.01,866.00,VWS V14.00,2013-04-26 20:40:00,
2013-04-26 15:45:00,70.4,40.7,29.93,SW,232,2.0,2.0,34,0.00,,---,0.01,691.00,VWS V14.00,2013-04-26 20:45:00,
2013-04-26 15:50:00,70.4,40.7,29.92,WNW,288,7.0,7.0,34,0.00,,---,0.01,691.00,VWS V14.00,2013-04-26 20:50:00,
2013-04-26 15:55:00,70.4,40.7,29.92,NW,326,8.0,8.0,34,0.00,,---,0.01,681.00,VWS V14.00,2013-04-26 20:55:00,
2013-04-26 16:00:00,70.4,40.7,29.92,NW,322,6.0,7.0,34,0.00,,---,0.01,681.00,VWS V14.00,2013-04-26 21:00:00,
2013-04-26 16:05:00,70.4,38.3,29.92,West,270,4.0,5.0,31,0.00,,---,0.01,655.00,VWS V14.00,2013-04-26 21:05:00,
2013-04-26 16:10:00,69.9,37.9,29.92,NW,318,2.0,2.0,31,0.00,,---,0.01,648.00,VWS V14.00,2013-04-26 21:10:00,
2013-04-26 16:15:00,70.1,38.1,29.92,West,277,6.0,11.0,31,0.00,,---,0.01,648.00,VWS V14.00,2013-04-26 21:15:00,
2013-04-26 16:20:00,70.1,38.1,29.92,SSW,193,2.0,2.0,31,0.00,,---,0.01,648.00,VWS V14.00,2013-04-26 21:20:00,
2013-04-26 16:25:00,70.1,38.1,29.92,NW,311,3.0,3.0,31,0.00,,---,0.01,648.00,VWS V14.00,2013-04-26 21:25:00,
2013-04-26 16:30:00,70.1,37.3,29.92,WNW,288,3.0,3.0,30,0.00,,---,0.01,648.00,VWS V14.00,2013-04-26 21:30:00,
2013-04-26 16:35:00,70.3,37.4,29.92,NNW,332,1.0,1.0,30,0.00,,---,0.01,575.00,VWS V14.00,2013-04-26 21:35:00,
2013-04-26 16:40:00,70.8,37.9,29.92,WSW,244,7.0,7.0,30,0.00,,---,0.01,575.00,VWS V14.00,2013-04-26 21:40:00,
2013-04-26 16:45:00,70.8,37.9,29.92,WNW,299,7.0,7.0,30,0.00,,---,0.01,575.00,VWS V14.00,2013-04-26 21:45:00,
2013-04-26 16:49:00,70.8,37.9,29.93,NW,320,2.0,2.0,30,0.00,,---,0.01,575.00,VWS V14.00,2013-04-26 21:49:00,
2013-04-26 16:54:00,70.8,37.9,29.93,NW,306,5.0,5.0,30,0.00,,---,0.01,575.00,VWS V14.00,2013-04-26 21:54:00,
2013-04-26 16:59:00,70.8,37.9,29.93,North,1,2.0,2.0,30,0.00,,---,0.01,575.00,VWS V14.00,2013-04-26 21:59:00,
2013-04-26 17:04:00,70.8,36.1,29.93,WNW,289,2.0,2.0,28,0.00,,---,0.01,575.00,VWS V14.00,2013-04-26 22:04:00,
2013-04-26 17:09:00,70.8,36.1,29.93,WNW,292,5.0,5.0,28,0.00,,---,0.01,575.00,VWS V14.00,2013-04-26 22:09:00,
2013-04-26 17:14:00,70.8,35.2,29.93,NNW,333,7.0,7.0,27,0.00,,---,0.01,575.00,VWS V14.00,2013-04-26 22:14:00,
2013-04-26 17:19:00,70.6,35.0,29.93,NW,313,5.0,6.0,27,0.00,,---,0.01,575.00,VWS V14.00,2013-04-26 22:19:00,
2013-04-26 17:24:00,70.4,34.9,29.93,North,359,2.0,2.0,27,0.00,,---,0.01,575.00,VWS V14.00,2013-04-26 22:24:00,
2013-04-26 17:29:00,70.4,34.9,29.93,NW,309,7.0,7.0,27,0.00,,---,0.01,575.00,VWS V14.00,2013-04-26 22:29:00,
2013-04-26 17:34:00,70.3,35.7,29.94,NW,325,5.0,5.0,28,0.00,,---,0.01,575.00,VWS V14.00,2013-04-26 22:34:00,
2013-04-26 17:39:00,70.3,35.7,29.94,NW,320,7.0,7.0,28,0.00,,---,0.01,575.00,VWS V14.00,2013-04-26 22:39:00,
2013-04-26 17:44:00,69.9,35.3,29.94,NNW,332,3.0,3.0,28,0.00,,---,0.01,575.00,VWS V14.00,2013-04-26 22:44:00,
2013-04-26 17:49:00,69.8,36.1,29.94,WNW,302,2.0,2.0,29,0.00,,---,0.01,575.00,VWS V14.00,2013-04-26 22:49:00,
2013-04-26 17:54:00,69.8,36.1,29.94,WNW,282,8.0,8.0,29,0.00,,---,0.01,575.00,VWS V14.00,2013-04-26 22:54:00,
2013-04-26 17:59:00,69.8,36.1,29.94,NW,311,5.0,5.0,29,0.00,,---,0.01,575.00,VWS V14.00,2013-04-26 22:59:00,
2013-04-26 18:04:00,69.8,36.1,29.95,West,261,6.0,6.0,29,0.00,,---,0.01,187.00,VWS V14.00,2013-04-26 23:04:00,
2013-04-26 18:09:00,69.8,36.1,29.95,NNW,339,6.0,6.0,29,0.00,,---,0.01,187.00,VWS V14.00,2013-04-26 23:09:00,
2013-04-26 18:14:00,69.4,34.9,29.95,NW,322,5.0,5.0,28,0.00,,---,0.01,187.00,VWS V14.00,2013-04-26 23:14:00,
2013-04-26 18:19:00,69.4,34.9,29.95,WNW,284,1.0,1.0,28,0.00,,---,0.01,187.00,VWS V14.00,2013-04-26 23:19:00,
2013-04-26 18:24:00,69.4,34.9,29.95,West,275,2.0,2.0,28,0.00,,---,0.01,187.00,VWS V14.00,2013-04-26 23:24:00,
2013-04-26 18:29:00,69.4,34.9,29.95,NW,313,4.0,4.0,28,0.00,,---,0.01,187.00,VWS V14.00,2013-04-26 23:29:00,
2013-04-26 18:34:00,69.4,34.9,29.95,NNW,329,3.0,3.0,28,0.00,,---,0.01,187.00,VWS V14.00,2013-04-26 23:34:00,
2013-04-26 18:39:00,69.4,34.9,29.95,NW,316,3.0,3.0,28,0.00,,---,0.01,187.00,VWS V14.00,2013-04-26 23:39:00,
2013-04-26 18:44:00,69.4,34.9,29.95,NW,315,6.0,6.0,28,0.00,,---,0.01,187.00,VWS V14.00,2013-04-26 23:44:00,
2013-04-26 18:49:00,69.4,34.9,29.95,NW,320,2.0,2.0,28,0.00,,---,0.01,187.00,VWS V14.00,2013-04-26 23:49:00,
2013-04-26 19:05:00,69.8,35.3,29.95,NW,309,6.0,6.0,28,0.00,,---,0.01,187.00,VWS V14.00,2013-04-27 00:05:00,
2013-04-26 19:10:00,69.8,35.3,29.95,NW,306,8.0,8.0,28,0.00,,---,0.01,187.00,VWS V14.00,2013-04-27 00:10:00,
2013-04-26 19:15:00,69.8,35.3,29.95,NW,306,8.0,8.0,28,0.00,,---,0.01,187.00,VWS V14.00,2013-04-27 00:15:00,
2013-04-26 19:20:00,68.8,34.4,29.96,West,281,6.0,6.0,28,0.00,,---,0.01,187.00,VWS V14.00,2013-04-27 00:20:00,
2013-04-26 19:25:00,68.8,34.4,29.96,West,268,2.0,2.0,28,0.00,,---,0.01,187.00,VWS V14.00,2013-04-27 00:25:00,
2013-04-26 19:30:00,68.8,34.4,29.96,NW,309,9.0,9.0,28,0.00,,---,0.01,187.00,VWS V14.00,2013-04-27 00:30:00,
2013-04-26 19:35:00,68.8,34.4,29.96,WNW,296,8.0,8.0,28,0.00,,---,0.01,187.00,VWS V14.00,2013-04-27 00:35:00,
2013-04-26 19:40:00,68.8,34.4,29.96,WNW,294,5.0,5.0,28,0.00,,---,0.01,187.00,VWS V14.00,2013-04-27 00:40:00,
2013-04-26 19:45:00,68.8,34.4,29.96,WNW,294,5.0,5.0,28,0.00,,---,0.01,187.00,VWS V14.00,2013-04-27 00:45:00,
2013-04-26 19:50:00,68.8,34.4,29.96,NW,318,7.0,7.0,28,0.00,,---,0.01,187.00,VWS V14.00,2013-04-27 00:50:00,
2013-04-26 19:55:00,68.8,34.4,29.96,WNW,302,3.0,3.0,28,0.00,,---,0.01,187.00,VWS V14.00,2013-04-27 00:55:00,
2013-04-26 20:00:00,68.8,34.4,29.96,WNW,302,3.0,3.0,28,0.00,,---,0.01,187.00,VWS V14.00,2013-04-27 01:00:00,
2013-04-26 20:05:00,68.8,34.4,29.97,WNW,302,3.0,3.0,28,0.00,,---,0.01,187.00,VWS V14.00,2013-04-27 01:05:00,
2013-04-26 20:10:00,68.8,34.4,29.97,WNW,302,3.0,3.0,28,0.00,,---,0.01,187.00,VWS V14.00,2013-04-27 01:10:00,
2013-04-26 20:15:00,68.8,34.4,29.97,WNW,302,3.0,3.0,28,0.00,,---,0.01,187.00,VWS V14.00,2013-04-27 01:15:00,
2013-04-26 20:20:00,68.8,34.4,29.98,WNW,302,3.0,3.0,28,0.00,,---,0.01,187.00,VWS V14.00,2013-04-27 01:20:00,
2013-04-26 20:25:00,68.8,34.4,29.98,NW,322,3.0,3.0,28,0.00,,---,0.01,187.00,VWS V14.00,2013-04-27 01:25:00,
2013-04-26 20:30:00,68.8,34.4,29.98,NW,322,3.0,3.0,28,0.00,,---,0.01,187.00,VWS V14.00,2013-04-27 01:30:00,
2013-04-26 20:35:00,68.8,34.4,29.99,NW,322,3.0,3.0,28,0.00,,---,0.01,187.00,VWS V14.00,2013-04-27 01:35:00,
2013-04-26 20:40:00,68.8,34.4,29.99,NW,322,3.0,3.0,28,0.00,,---,0.01,187.00,VWS V14.00,2013-04-27 01:40:00,
2013-04-26 20:45:00,68.8,34.4,29.99,NW,322,3.0,3.0,28,0.00,,---,0.01,187.00,VWS V14.00,2013-04-27 01:45:00,
2013-04-26 20:50:00,68.8,34.4,29.99,NW,322,3.0,3.0,28,0.00,,---,0.01,187.00,VWS V14.00,2013-04-27 01:50:00,
2013-04-26 20:55:00,68.8,34.4,29.99,NW,322,3.0,3.0,28,0.00,,---,0.01,187.00,VWS V14.00,2013-04-27 01:55:00,
2013-04-26 21:00:00,68.8,34.4,29.99,NW,322,3.0,3.0,28,0.00,,---,0.01,187.00,VWS V14.00,2013-04-27 02:00:00,
2013-04-26 21:05:00,68.8,34.4,30.00,NW,311,2.0,3.0,28,0.00,,---,0.01,187.00,VWS V14.00,2013-04-27 02:05:00,
2013-04-26 21:10:00,68.8,34.4,30.00,NW,318,2.0,2.0,28,0.00,,---,0.01,187.00,VWS V14.00,2013-04-27 02:10:00,
2013-04-26 21:15:00,68.8,34.4,30.00,NW,318,2.0,2.0,28,0.00,,---,0.01,187.00,VWS V14.00,2013-04-27 02:15:00,
2013-04-26 21:20:00,62.9,29.3,29.99,NW,313,2.0,5.0,28,0.00,,---,0.01,187.00,VWS V14.00,2013-04-27 02:20:00,
2013-04-26 21:25:00,62.9,29.3,29.99,NNW,333,6.0,6.0,28,0.00,,---,0.01,187.00,VWS V14.00,2013-04-27 02:25:00,
2013-04-26 21:30:00,62.6,29.1,29.99,NNW,337,1.0,1.0,28,0.00,,---,0.01,187.00,VWS V14.00,2013-04-27 02:30:00,
2013-04-26 21:35:00,62.6,29.1,30.00,NW,326,2.0,2.0,28,0.00,,---,0.01,187.00,VWS V14.00,2013-04-27 02:35:00,
2013-04-26 21:40:00,62.6,29.1,30.00,NW,315,2.0,2.0,28,0.00,,---,0.01,187.00,VWS V14.00,2013-04-27 02:40:00,
2013-04-26 21:45:00,62.6,29.1,30.00,NW,320,3.0,3.0,28,0.00,,---,0.01,187.00,VWS V14.00,2013-04-27 02:45:00,
2013-04-26 21:50:00,62.6,34.6,30.01,NW,316,2.0,2.0,35,0.00,,---,0.01,187.00,VWS V14.00,2013-04-27 02:50:00,
2013-04-26 21:55:00,61.2,33.3,30.01,NNW,336,1.0,2.0,35,0.00,,---,0.01,187.00,VWS V14.00,2013-04-27 02:55:00,
2013-04-26 22:00:00,61.2,33.3,30.01,NNW,336,1.0,1.0,35,0.00,,---,0.01,187.00,VWS V14.00,2013-04-27 03:00:00,
2013-04-26 22:05:00,61.2,33.3,30.02,NNW,336,1.0,1.0,35,0.00,,---,0.01,187.00,VWS V14.00,2013-04-27 03:05:00,
2013-04-26 22:10:00,61.2,33.3,30.02,NNW,336,1.0,1.0,35,0.00,,---,0.01,187.00,VWS V14.00,2013-04-27 03:10:00,
2013-04-26 22:15:00,61.2,33.3,30.02,NNW,336,1.0,1.0,35,0.00,,---,0.01,187.00,VWS V14.00,2013-04-27 03:15:00,
2013-04-26 22:20:00,61.2,33.3,30.02,NNW,336,1.0,1.0,35,0.00,,---,0.01,187.00,VWS V14.00,2013-04-27 03:20:00,
2013-04-26 22:25:00,61.2,33.3,30.02,NW,320,2.0,2.0,35,0.00,,---,0.01,187.00,VWS V14.00,2013-04-27 03:25:00,
2013-04-26 22:30:00,59.8,32.1,30.02,NW,319,2.0,2.0,35,0.00,,---,0.01,187.00,VWS V14.00,2013-04-27 03:30:00,
2013-04-26 22:35:00,59.6,31.9,30.02,NW,319,2.0,2.0,35,0.00,,---,0.01,187.00,VWS V14.00,2013-04-27 03:35:00,
2013-04-26 22:40:00,59.6,31.9,30.02,NW,319,2.0,2.0,35,0.00,,---,0.01,187.00,VWS V14.00,2013-04-27 03:40:00,
2013-04-26 22:45:00,58.9,31.3,30.02,NW,316,2.0,3.0,35,0.00,,---,0.01,187.00,VWS V14.00,2013-04-27 03:45:00,
2013-04-26 22:50:00,58.9,31.3,30.02,NW,316,2.0,2.0,35,0.00,,---,0.01,187.00,VWS V14.00,2013-04-27 03:50:00,
2013-04-26 22:55:00,58.9,31.3,30.02,NW,316,2.0,2.0,35,0.00,,---,0.01,187.00,VWS V14.00,2013-04-27 03:55:00,
2013-04-26 23:00:00,58.3,30.8,30.02,NW,316,2.0,2.0,35,0.00,,---,0.01,187.00,VWS V14.00,2013-04-27 04:00:00,
2013-04-26 23:01:00,58.3,30.8,30.02,NW,316,2.0,2.0,35,0.00,,---,0.01,187.00,VWS V14.00,2013-04-27 04:01:00,
2013-04-26 23:06:00,58.3,30.8,30.02,NW,316,1.0,2.0,35,0.00,,---,0.01,187.00,VWS V14.00,2013-04-27 04:06:00,
2013-04-26 23:11:00,57.8,30.4,30.02,NW,316,1.0,1.0,35,0.00,,---,0.01,187.00,VWS V14.00,2013-04-27 04:11:00,
2013-04-26 23:16:00,57.8,30.4,30.02,NW,316,1.0,1.0,35,0.00,,---,0.01,187.00,VWS V14.00,2013-04-27 04:16:00,
2013-04-26 23:21:00,57.8,30.4,30.02,NW,316,1.0,1.0,35,0.00,,---,0.01,187.00,VWS V14.00,2013-04-27 04:21:00,
2013-04-26 23:26:00,57.8,30.4,30.02,NW,316,1.0,1.0,35,0.00,,---,0.01,187.00,VWS V14.00,2013-04-27 04:26:00,
2013-04-26 23:31:00,57.8,30.4,30.02,NW,316,1.0,1.0,35,0.00,,---,0.01,187.00,VWS V14.00,2013-04-27 04:31:00,
2013-04-26 23:36:00,56.6,29.3,30.03,NW,316,1.0,2.0,35,0.00,,---,0.01,187.00,VWS V14.00,2013-04-27 04:36:00,
2013-04-26 23:41:00,56.5,29.2,30.03,NW,316,1.0,1.0,35,0.00,,---,0.01,187.00,VWS V14.00,2013-04-27 04:41:00,
2013-04-26 23:46:00,56.3,32.9,30.03,NW,316,1.0,1.0,41,0.00,,---,0.01,187.00,VWS V14.00,2013-04-27 04:46:00,
2013-04-26 23:51:00,56.2,32.8,30.03,NW,316,0.0,0.0,41,0.00,,---,0.01,187.00,VWS V14.00,2013-04-27 04:51:00,
2013-04-26 23:56:00,56.2,32.8,30.03,NW,316,0.0,0.0,41,0.00,,---,0.01,187.00,VWS V14.00,2013-04-27 04:56:00,